Time;durP1;ratioP1;P1;durP2;ratioP2;P2;SDS_P1;SDS_P2;PMS_P1;PMS_P2;Temp;Humidity;BMP_temperature;BMP_pressure;BME280_temperature;BME280_humidity;BME280_pressure;Samples;Min_cycle;Max_cycle;Signal;HPM_P1;HPM_P2
2022/12/05 00:01:34;;;;;;;34.60;19.38;;;4.40;99.90;;;;;;5059501;28;20087;-31
2022/12/05 00:04:03;;;;;;;31.95;18.58;;;4.30;99.90;;;;;;5057977;28;20419;-31
2022/12/05 00:06:32;;;;;;;29.33;18.08;;;4.70;99.90;;;;;;5060235;28;20049;-31
2022/12/05 00:08:58;;;;;;;33.03;18.10;;;4.40;99.90;;;;;;5059030;28;20055;-32
2022/12/05 00:11:26;;;;;;;31.33;18.08;;;4.40;99.90;;;;;;5055424;28;20043;-31
2022/12/05 00:13:54;;;;;;;29.27;17.10;;;4.40;99.90;;;;;;5057143;28;20060;-31
2022/12/05 00:16:23;;;;;;;31.27;17.63;;;4.40;99.90;;;;;;5056187;28;20045;-30
2022/12/05 00:18:49;;;;;;;28.45;16.60;;;4.40;99.90;;;;;;5055404;28;20128;-31
2022/12/05 00:21:21;;;;;;;31.30;19.13;;;4.50;99.90;;;;;;5056082;28;20053;-31
2022/12/05 00:23:47;;;;;;;31.60;19.38;;;4.50;99.90;;;;;;5056671;28;20053;-31
2022/12/05 00:26:13;;;;;;;30.13;18.92;;;4.50;99.90;;;;;;5056065;28;20052;-31
2022/12/05 00:28:39;;;;;;;30.45;17.80;;;4.50;99.90;;;;;;5055876;28;20041;-31
2022/12/05 00:31:11;;;;;;;31.95;19.20;;;4.60;99.90;;;;;;5055851;28;20055;-31
2022/12/05 00:33:37;;;;;;;33.83;19.83;;;4.60;99.90;;;;;;5056437;28;20037;-31
2022/12/05 00:36:19;;;;;;;33.90;19.83;;;4.60;99.90;;;;;;5055869;28;20049;-31
2022/12/05 00:38:46;;;;;;;36.10;19.92;;;4.60;99.90;;;;;;5055662;28;20493;-31
2022/12/05 00:41:16;;;;;;;30.58;19.65;;;4.70;99.90;;;;;;5055265;28;20391;-31
2022/12/05 00:43:42;;;;;;;36.75;21.35;;;4.60;99.90;;;;;;5055717;28;20079;-31
2022/12/05 00:46:19;;;;;;;36.30;20.45;;;4.60;99.90;;;;;;5054354;28;20045;-31
2022/12/05 00:48:45;;;;;;;40.05;22.15;;;4.60;99.90;;;;;;5038299;28;20049;-31
2022/12/05 00:51:15;;;;;;;40.10;21.95;;;4.60;99.90;;;;;;5055547;28;20049;-31
2022/12/05 00:53:41;;;;;;;41.25;21.63;;;5.00;99.90;;;;;;5055381;28;20033;-31
2022/12/05 00:56:13;;;;;;;40.42;23.67;;;4.60;99.90;;;;;;5055144;28;20507;-31
2022/12/05 00:58:39;;;;;;;38.25;21.40;;;4.60;99.90;;;;;;5055434;28;20044;-31
2022/12/05 01:01:09;;;;;;;39.92;22.27;;;4.70;99.90;;;;;;5054942;28;20569;-31
2022/12/05 01:03:35;;;;;;;40.72;23.58;;;4.60;99.90;;;;;;5055283;28;20132;-31
2022/12/05 01:06:01;;;;;;;36.95;21.48;;;4.70;99.90;;;;;;5054359;28;20479;-32
2022/12/05 01:08:27;;;;;;;35.35;19.90;;;4.60;99.90;;;;;;5055142;28;20053;-32
2022/12/05 01:10:55;;;;;;;38.88;20.27;;;4.60;99.90;;;;;;5054261;28;20403;-32
2022/12/05 01:13:21;;;;;;;31.77;19.30;;;4.60;99.90;;;;;;5054993;28;20107;-32
2022/12/05 01:15:47;;;;;;;30.60;18.20;;;4.60;99.90;;;;;;5055304;28;20131;-31
2022/12/05 01:18:13;;;;;;;29.20;16.73;;;4.70;99.90;;;;;;5055092;28;20088;-31
2022/12/05 01:20:40;;;;;;;29.90;17.10;;;4.70;99.90;;;;;;5054552;28;20475;-31
2022/12/05 01:23:06;;;;;;;26.63;15.82;;;4.70;99.90;;;;;;5053706;28;20091;-31
2022/12/05 01:25:32;;;;;;;24.45;15.50;;;4.80;99.90;;;;;;5054715;28;20051;-31
2022/12/05 01:27:58;;;;;;;25.67;15.80;;;4.80;99.90;;;;;;5053834;28;20467;-31
2022/12/05 01:30:25;;;;;;;28.83;15.30;;;4.80;99.90;;;;;;5054439;28;20093;-31
2022/12/05 01:32:51;;;;;;;27.27;15.05;;;4.80;99.90;;;;;;5054619;28;20129;-31
2022/12/05 01:35:17;;;;;;;23.65;14.60;;;4.90;99.90;;;;;;5053760;28;20131;-31
2022/12/05 01:37:42;;;;;;;26.02;14.73;;;4.90;99.90;;;;;;5054623;28;20057;-31
2022/12/05 01:40:08;;;;;;;22.67;13.77;;;4.90;99.90;;;;;;5055413;28;20060;-31
2022/12/05 01:42:34;;;;;;;22.23;14.07;;;4.90;99.90;;;;;;5054576;28;20041;-32
2022/12/05 01:45:07;;;;;;;24.27;14.07;;;5.00;99.90;;;;;;5054513;28;20463;-32
2022/12/05 01:47:35;;;;;;;23.45;13.63;;;5.00;99.90;;;;;;5054768;28;20432;-32
2022/12/05 01:50:02;;;;;;;24.08;13.63;;;5.00;99.90;;;;;;5054487;28;20127;-31
2022/12/05 01:52:29;;;;;;;19.80;12.38;;;5.00;99.90;;;;;;5054302;28;20037;-32
2022/12/05 01:55:00;;;;;;;21.75;12.98;;;5.10;99.90;;;;;;5053100;28;20084;-31
2022/12/05 01:57:26;;;;;;;20.75;12.40;;;5.10;99.90;;;;;;5053899;28;20053;-31
2022/12/05 01:59:56;;;;;;;21.63;11.48;;;5.10;99.90;;;;;;5054216;28;20501;-31
2022/12/05 02:02:22;;;;;;;18.17;11.32;;;5.10;99.90;;;;;;5055003;28;20051;-31
2022/12/05 02:04:58;;;;;;;20.70;11.38;;;5.10;99.90;;;;;;5054151;28;20044;-32
2022/12/05 02:07:24;;;;;;;19.73;11.77;;;5.10;99.90;;;;;;5054502;28;20044;-31
2022/12/05 02:09:50;;;;;;;16.60;10.05;;;5.10;99.90;;;;;;5054044;28;20051;-31
2022/12/05 02:12:18;;;;;;;18.50;10.32;;;5.10;99.90;;;;;;5052766;28;20033;-31
2022/12/05 02:14:48;;;;;;;16.73;9.77;;;5.20;99.90;;;;;;5054034;28;20071;-31
2022/12/05 02:17:28;;;;;;;15.88;9.75;;;5.50;99.90;;;;;;5053971;28;20055;-31
2022/12/05 02:20:19;;;;;;;15.85;9.23;;;5.10;99.90;;;;;;5052986;28;20152;-31
2022/12/05 02:22:45;;;;;;;16.63;9.75;;;5.10;99.90;;;;;;5052892;28;20056;-31
2022/12/05 02:25:35;;;;;;;16.02;9.75;;;5.10;99.90;;;;;;5054036;28;20045;-31
2022/12/05 02:28:33;;;;;;;13.80;9.18;;;5.20;99.90;;;;;;5054065;28;20090;-31
2022/12/05 02:31:15;;;;;;;14.30;9.50;;;5.10;99.90;;;;;;5052088;28;20149;-31
2022/12/05 02:33:47;;;;;;;16.52;10.80;;;5.10;99.90;;;;;;5053224;28;20041;-31
2022/12/05 02:36:27;;;;;;;15.13;9.32;;;5.10;99.90;;;;;;5054239;28;20123;-31
2022/12/05 02:39:03;;;;;;;11.60;8.85;;;5.10;99.90;;;;;;5053952;28;20052;-31
2022/12/05 02:41:44;;;;;;;13.07;8.85;;;5.10;99.90;;;;;;5054439;28;20095;-31
2022/12/05 02:44:22;;;;;;;16.80;10.18;;;5.10;99.90;;;;;;5052920;28;20057;-31
2022/12/05 02:46:51;;;;;;;14.55;9.27;;;5.10;99.90;;;;;;5053611;28;20101;-32
2022/12/05 02:49:21;;;;;;;11.80;8.55;;;5.00;99.90;;;;;;5052500;28;20409;-32
2022/12/05 02:51:50;;;;;;;13.30;8.90;;;5.00;99.90;;;;;;5054180;28;20093;-31
2022/12/05 02:54:23;;;;;;;15.80;8.95;;;5.00;99.90;;;;;;5053400;28;20110;-31
2022/12/05 02:56:51;;;;;;;16.63;8.82;;;5.00;99.90;;;;;;5053720;28;20045;-31
2022/12/05 02:59:16;;;;;;;16.50;9.63;;;5.00;99.90;;;;;;5052371;28;20049;-31
2022/12/05 03:01:45;;;;;;;14.07;8.30;;;5.40;99.90;;;;;;5053316;28;20045;-31
2022/12/05 03:04:12;;;;;;;14.15;8.98;;;5.00;99.90;;;;;;5053358;28;20514;-32
2022/12/05 03:06:47;;;;;;;13.32;8.15;;;5.00;99.90;;;;;;5053498;28;20391;-31
2022/12/05 03:09:42;;;;;;;14.05;8.60;;;5.00;99.90;;;;;;5053180;28;20053;-31
2022/12/05 03:12:19;;;;;;;11.60;7.63;;;5.00;99.90;;;;;;5053485;28;20058;-31
2022/12/05 03:14:52;;;;;;;11.82;8.35;;;4.90;99.90;;;;;;5053223;28;20128;-31
2022/12/05 03:17:23;;;;;;;11.82;8.10;;;4.90;99.90;;;;;;5053815;28;20049;-30
2022/12/05 03:20:03;;;;;;;13.60;8.45;;;5.00;99.90;;;;;;5052589;28;20573;-32
2022/12/05 03:22:45;;;;;;;13.52;7.53;;;5.00;99.90;;;;;;5053171;28;20471;-32
2022/12/05 03:25:12;;;;;;;15.18;8.00;;;4.90;99.90;;;;;;5036398;28;20079;-31
2022/12/05 03:27:59;;;;;;;12.50;7.30;;;5.00;99.90;;;;;;5053193;28;20138;-31
2022/12/05 03:30:25;;;;;;;14.55;6.78;;;5.00;99.90;;;;;;5053168;28;20123;-31
2022/12/05 03:32:58;;;;;;;12.65;7.07;;;5.00;99.90;;;;;;5053540;28;20179;-31
2022/12/05 03:35:43;;;;;;;13.63;7.30;;;5.00;99.90;;;;;;5053057;28;20478;-31
2022/12/05 03:38:13;;;;;;;14.10;7.40;;;5.00;99.90;;;;;;5053092;28;20049;-31
2022/12/05 03:41:09;;;;;;;15.05;8.75;;;5.00;99.90;;;;;;5053860;28;20111;-31
2022/12/05 03:43:47;;;;;;;13.23;8.18;;;5.00;99.90;;;;;;5052348;28;20053;-31
2022/12/05 03:46:25;;;;;;;15.73;7.93;;;5.00;99.90;;;;;;5056784;28;20082;-31
2022/12/05 03:48:54;;;;;;;16.48;8.13;;;5.00;99.90;;;;;;5056432;28;20487;-31
2022/12/05 03:51:24;;;;;;;14.52;8.10;;;5.00;99.90;;;;;;5055704;28;20076;-31
2022/12/05 03:54:00;;;;;;;14.30;8.60;;;5.00;99.90;;;;;;5057413;28;20041;-31
2022/12/05 03:56:35;;;;;;;18.42;9.10;;;5.00;99.90;;;;;;5056624;28;20049;-31
2022/12/05 03:59:25;;;;;;;15.85;9.32;;;4.90;99.90;;;;;;5056862;28;20124;-31
2022/12/05 04:01:54;;;;;;;21.73;9.90;;;4.90;99.90;;;;;;5056271;28;20561;-30
2022/12/05 04:04:33;;;;;;;16.67;9.88;;;4.90;99.90;;;;;;5056462;28;20131;-31
2022/12/05 04:07:01;;;;;;;19.00;9.45;;;4.90;99.90;;;;;;5056454;28;20048;-31
2022/12/05 04:09:32;;;;;;;20.55;10.45;;;4.90;99.90;;;;;;5056036;28;20556;-31
2022/12/05 04:12:03;;;;;;;16.65;10.85;;;4.90;99.90;;;;;;5056273;28;20040;-30
2022/12/05 04:14:38;;;;;;;17.77;10.05;;;4.90;99.90;;;;;;5056325;28;20053;-31
2022/12/05 04:17:08;;;;;;;19.42;11.02;;;4.90;99.90;;;;;;5056779;28;20403;-31
2022/12/05 04:22:28;;;;;;;20.95;11.30;;;4.90;99.90;;;;;;5056017;28;20425;-30
2022/12/05 04:28:14;;;;;;;18.70;10.27;;;4.90;99.90;;;;;;5056334;28;20399;-31
2022/12/05 04:30:52;;;;;;;20.10;10.23;;;4.90;99.90;;;;;;5056032;28;20048;-31
2022/12/05 04:33:36;;;;;;;17.92;10.10;;;4.90;99.90;;;;;;5056110;28;20124;-31
2022/12/05 04:36:04;;;;;;;;;;;4.90;99.90;;;;;;5055627;28;20048;-31
2022/12/05 04:38:47;;;;;;;17.73;9.38;;;4.90;99.90;;;;;;5055532;28;20298;-31
2022/12/05 04:41:35;;;;;;;18.75;9.70;;;4.90;99.90;;;;;;5056412;28;20048;-31
2022/12/05 04:44:06;;;;;;;18.63;10.77;;;4.90;99.90;;;;;;5054576;28;20582;-31
2022/12/05 04:46:34;;;;;;;14.52;9.15;;;5.00;99.90;;;;;;5055097;28;20052;-31
2022/12/05 04:49:02;;;;;;;18.13;10.50;;;5.00;99.90;;;;;;5056381;28;20098;-31
2022/12/05 04:51:33;;;;;;;22.58;10.75;;;5.30;99.90;;;;;;5055551;28;20185;-31
2022/12/05 04:54:08;;;;;;;22.02;10.70;;;5.00;99.90;;;;;;5055503;28;20051;-31
2022/12/05 04:56:36;;;;;;;19.77;10.63;;;5.00;99.90;;;;;;5054829;28;20048;-31
2022/12/05 04:59:03;;;;;;;21.90;10.43;;;5.00;99.90;;;;;;5055415;28;20075;-31
2022/12/05 05:01:38;;;;;;;18.60;9.90;;;5.00;99.90;;;;;;5037541;28;20487;-31
2022/12/05 05:04:13;;;;;;;19.58;10.43;;;5.00;99.90;;;;;;5055932;28;20059;-31
2022/12/05 05:06:41;;;;;;;16.13;9.02;;;5.00;99.90;;;;;;5055574;28;20129;-31
2022/12/05 05:09:07;;;;;;;21.88;9.80;;;5.00;99.90;;;;;;5055245;28;20063;-31
2022/12/05 05:11:34;;;;;;;23.33;10.05;;;5.00;99.90;;;;;;5054026;28;20124;-32
2022/12/05 05:14:00;;;;;;;20.77;10.70;;;5.00;99.90;;;;;;5053520;28;20052;-31
2022/12/05 05:16:29;;;;;;;18.23;10.45;;;5.10;99.90;;;;;;5055094;28;20124;-31
2022/12/05 05:18:55;;;;;;;22.77;10.77;;;5.10;99.90;;;;;;5054975;28;20132;-31
2022/12/05 05:21:25;;;;;;;22.42;10.20;;;5.00;99.90;;;;;;5055030;28;20132;-30
2022/12/05 05:23:51;;;;;;;22.45;11.35;;;5.00;99.90;;;;;;5054974;28;20045;-31
2022/12/05 05:26:17;;;;;;;21.13;11.38;;;5.00;99.90;;;;;;5054275;28;20053;-31
2022/12/05 05:28:44;;;;;;;19.63;10.95;;;5.00;99.90;;;;;;5004946;28;20052;-30
2022/12/05 05:31:10;;;;;;;21.30;11.15;;;5.00;99.90;;;;;;5053635;28;20045;-30
2022/12/05 05:33:36;;;;;;;21.25;10.23;;;5.00;99.90;;;;;;5055218;28;20045;-30
2022/12/05 05:36:10;;;;;;;18.98;10.82;;;5.10;99.90;;;;;;5055029;28;20398;-30
2022/12/05 05:38:37;;;;;;;19.73;11.63;;;5.00;99.90;;;;;;5055283;28;20056;-31
2022/12/05 05:41:04;;;;;;;19.90;11.05;;;5.00;99.90;;;;;;5054625;28;20049;-31
2022/12/05 05:43:29;;;;;;;18.95;10.38;;;5.00;99.90;;;;;;5053590;28;20106;-32
2022/12/05 05:45:55;;;;;;;18.67;10.90;;;4.90;99.90;;;;;;5054482;28;20052;-31
2022/12/05 05:48:21;;;;;;;25.20;11.15;;;5.00;99.90;;;;;;5054479;28;20083;-31
2022/12/05 05:50:47;;;;;;;21.50;11.32;;;5.00;99.90;;;;;;5053250;28;20055;-30
2022/12/05 05:53:12;;;;;;;22.80;12.38;;;4.90;99.90;;;;;;5054351;28;20045;-30
2022/12/05 05:55:39;;;;;;;21.20;10.45;;;5.00;99.90;;;;;;5054241;28;20387;-31
2022/12/05 05:58:05;;;;;;;21.83;11.07;;;4.90;99.90;;;;;;5053386;28;20056;-30
2022/12/05 06:00:31;;;;;;;17.42;10.45;;;4.90;99.90;;;;;;5054521;28;20045;-31
2022/12/05 06:02:56;;;;;;;20.23;10.93;;;4.90;99.90;;;;;;5054289;28;20047;-30
2022/12/05 06:05:22;;;;;;;21.77;10.38;;;5.00;99.90;;;;;;5054210;28;20075;-30
2022/12/05 06:07:48;;;;;;;20.25;9.98;;;4.90;99.90;;;;;;5053679;28;20045;-30
2022/12/05 06:10:13;;;;;;;20.27;10.00;;;4.90;99.90;;;;;;5053493;28;20041;-31
2022/12/05 06:12:39;;;;;;;26.55;11.02;;;4.90;99.90;;;;;;5053746;28;20041;-31
2022/12/05 06:15:06;;;;;;;23.60;10.65;;;4.90;99.90;;;;;;5054561;28;20092;-31
2022/12/05 06:17:31;;;;;;;19.90;10.43;;;4.90;99.90;;;;;;5053970;28;20087;-30
2022/12/05 06:20:00;;;;;;;18.05;9.60;;;4.90;99.90;;;;;;5052642;28;20076;-31
2022/12/05 06:22:25;;;;;;;22.85;9.93;;;5.00;99.90;;;;;;5054159;28;20067;-31
2022/12/05 06:24:51;;;;;;;22.38;10.60;;;4.90;99.90;;;;;;5052879;28;20048;-31
2022/12/05 06:27:17;;;;;;;18.25;8.77;;;5.00;99.90;;;;;;5054103;28;20044;-31
2022/12/05 06:29:42;;;;;;;18.27;9.25;;;5.00;99.90;;;;;;5054258;28;20049;-34
2022/12/05 06:32:08;;;;;;;19.98;10.02;;;5.00;99.90;;;;;;5053660;28;20391;-31
2022/12/05 06:34:34;;;;;;;19.15;9.25;;;5.10;99.90;;;;;;5053719;28;20098;-31
2022/12/05 06:37:00;;;;;;;14.43;8.90;;;5.00;99.90;;;;;;5053673;28;20052;-31
2022/12/05 06:39:26;;;;;;;19.48;9.35;;;5.00;99.90;;;;;;5054146;28;20049;-31
2022/12/05 06:41:52;;;;;;;18.92;9.90;;;5.00;99.90;;;;;;5053686;28;20052;-31
2022/12/05 06:44:20;;;;;;;15.90;8.45;;;5.00;99.90;;;;;;5054372;28;20052;-31
2022/12/05 06:46:47;;;;;;;22.48;9.80;;;5.00;99.90;;;;;;5053513;28;20048;-31
2022/12/05 06:49:12;;;;;;;19.13;9.43;;;5.00;99.90;;;;;;5053556;28;20131;-32
2022/12/05 06:51:38;;;;;;;16.50;7.75;;;5.00;99.90;;;;;;5053504;28;20077;-31
2022/12/05 06:54:04;;;;;;;14.85;8.25;;;5.00;99.90;;;;;;5052252;28;20469;-31
2022/12/05 06:56:30;;;;;;;19.48;9.05;;;5.10;99.90;;;;;;5036034;28;20040;-32
2022/12/05 06:58:55;;;;;;;18.63;8.65;;;5.10;99.90;;;;;;5053331;28;20057;-30
2022/12/05 07:01:38;;;;;;;16.50;9.73;;;5.10;99.90;;;;;;5053336;28;20044;-31
2022/12/05 07:04:24;;;;;;;21.65;9.50;;;5.10;99.90;;;;;;5053647;28;20048;-32
2022/12/05 07:06:51;;;;;;;18.25;9.77;;;5.10;99.90;;;;;;5053337;28;20048;-31
2022/12/05 07:09:19;;;;;;;22.88;10.68;;;5.10;99.90;;;;;;5053253;28;20507;-31
2022/12/05 07:11:49;;;;;;;25.38;10.75;;;5.10;99.90;;;;;;5053777;28;20386;-31
2022/12/05 07:14:16;;;;;;;22.42;11.55;;;5.10;99.90;;;;;;5053443;28;20071;-31
2022/12/05 07:16:42;;;;;;;18.08;10.20;;;5.10;99.90;;;;;;5053239;28;20052;-31
2022/12/05 07:19:09;;;;;;;19.65;10.52;;;5.10;99.90;;;;;;5053854;28;20045;-31
2022/12/05 07:21:35;;;;;;;19.75;10.65;;;5.10;99.90;;;;;;5057249;28;20068;-31
2022/12/05 07:24:00;;;;;;;20.65;10.48;;;5.20;99.90;;;;;;5057208;28;20037;-31
2022/12/05 07:26:26;;;;;;;21.00;9.25;;;5.20;99.90;;;;;;5057362;28;20041;-31
2022/12/05 07:28:55;;;;;;;17.95;9.82;;;5.20;99.90;;;;;;5056489;28;20045;-30
2022/12/05 07:31:22;;;;;;;14.88;8.98;;;5.40;99.90;;;;;;5057077;28;20049;-31
2022/12/05 07:33:51;;;;;;;23.77;9.05;;;5.20;99.90;;;;;;5056874;28;20045;-32
2022/12/05 07:36:19;;;;;;;20.45;10.25;;;5.20;99.90;;;;;;5057006;28;20044;-32
2022/12/05 07:38:45;;;;;;;18.23;8.70;;;5.30;99.90;;;;;;5056853;28;20045;-33
2022/12/05 07:41:20;;;;;;;17.60;8.15;;;5.30;99.90;;;;;;5039329;28;20095;-31
2022/12/05 07:43:46;;;;;;;15.85;8.40;;;5.30;99.90;;;;;;5056601;28;20510;-31
2022/12/05 07:46:12;;;;;;;22.50;8.82;;;5.30;99.90;;;;;;5056786;28;20143;-31
2022/12/05 07:48:38;;;;;;;20.20;8.75;;;5.20;99.90;;;;;;5057238;28;20375;-31
2022/12/05 07:51:06;;;;;;;24.95;8.30;;;5.30;99.90;;;;;;5056758;28;20052;-31
2022/12/05 07:53:33;;;;;;;16.48;9.00;;;5.30;99.90;;;;;;5056620;28;20041;-31
2022/12/05 07:56:00;;;;;;;20.88;8.40;;;5.30;99.90;;;;;;5056650;28;20080;-31
2022/12/05 07:58:29;;;;;;;31.13;10.80;;;5.30;99.90;;;;;;5056565;28;20458;-31
2022/12/05 08:00:57;;;;;;;17.88;8.10;;;5.30;99.90;;;;;;5056472;28;20421;-32
2022/12/05 08:03:23;;;;;;;15.80;7.72;;;5.30;99.90;;;;;;5056450;28;20049;-31
2022/12/05 08:05:49;;;;;;;32.47;9.57;;;5.30;99.90;;;;;;5071859;28;20052;-31
2022/12/05 08:08:15;;;;;;;19.45;8.05;;;5.30;99.90;;;;;;5056521;28;20052;-31
2022/12/05 08:10:40;;;;;;;15.52;6.90;;;5.30;99.90;;;;;;5071762;28;20052;-31
2022/12/05 08:13:07;;;;;;;23.70;7.65;;;5.40;99.90;;;;;;5071664;28;20056;-31
2022/12/05 08:15:36;;;;;;;15.27;7.22;;;5.40;99.90;;;;;;5056592;28;20057;-31
2022/12/05 08:18:01;;;;;;;20.15;7.90;;;5.40;99.90;;;;;;5056230;28;20044;-31
2022/12/05 08:20:27;;;;;;;18.90;7.90;;;5.40;99.90;;;;;;5054849;28;20045;-31
2022/12/05 08:22:53;;;;;;;19.80;8.48;;;5.40;99.90;;;;;;5056356;28;20530;-31
2022/12/05 08:25:19;;;;;;;13.57;7.85;;;5.40;99.90;;;;;;5056174;28;20067;-31
2022/12/05 08:27:44;;;;;;;18.70;7.88;;;5.40;99.90;;;;;;5056050;28;20487;-32
2022/12/05 08:30:10;;;;;;;16.38;7.40;;;5.40;99.90;;;;;;5055904;28;20049;-31
2022/12/05 08:32:36;;;;;;;21.63;7.75;;;5.40;99.90;;;;;;5055095;28;20049;-31
2022/12/05 08:35:02;;;;;;;16.60;7.22;;;5.40;99.90;;;;;;5054882;28;20037;-31
2022/12/05 08:37:28;;;;;;;25.55;8.57;;;5.40;99.90;;;;;;5055879;28;20088;-31
2022/12/05 08:39:53;;;;;;;14.50;7.45;;;5.40;99.90;;;;;;5056064;28;20048;-32
2022/12/05 08:42:19;;;;;;;19.23;8.88;;;5.80;99.90;;;;;;5056235;28;20044;-30
2022/12/05 08:44:45;;;;;;;24.50;10.60;;;5.40;99.90;;;;;;5088251;28;20049;-33
2022/12/05 08:47:10;;;;;;;20.10;8.25;;;5.40;99.90;;;;;;5056192;28;20049;-31
2022/12/05 08:49:36;;;;;;;20.88;9.07;;;5.40;99.90;;;;;;5055647;28;20048;-31
2022/12/05 08:52:02;;;;;;;24.55;10.25;;;5.30;99.90;;;;;;5055568;28;20051;-31
2022/12/05 08:54:28;;;;;;;24.50;10.65;;;5.30;99.90;;;;;;5055837;28;20037;-31
2022/12/05 08:56:53;;;;;;;28.77;9.85;;;5.30;99.90;;;;;;5055390;28;20054;-30
2022/12/05 08:59:19;;;;;;;19.27;9.20;;;5.30;99.90;;;;;;5055442;28;20049;-31
2022/12/05 09:01:45;;;;;;;21.63;10.15;;;5.40;99.90;;;;;;5055550;28;20099;-30
2022/12/05 09:04:11;;;;;;;24.45;9.63;;;5.30;99.90;;;;;;5038363;28;20047;-30
2022/12/05 09:06:38;;;;;;;24.33;9.55;;;5.30;99.90;;;;;;5055329;28;20060;-31
2022/12/05 09:09:06;;;;;;;21.55;10.43;;;5.30;99.90;;;;;;5055217;28;20123;-30
2022/12/05 09:11:34;;;;;;;22.55;9.63;;;5.30;99.90;;;;;;5055365;28;20075;-30
2022/12/05 09:14:00;;;;;;;18.55;9.27;;;5.30;99.90;;;;;;5055475;28;20475;-30
2022/12/05 09:16:29;;;;;;;24.17;10.25;;;5.30;99.90;;;;;;5055261;28;20056;-31
2022/12/05 09:18:55;;;;;;;21.35;10.38;;;5.30;99.90;;;;;;5055101;28;20052;-32
2022/12/05 09:21:23;;;;;;;19.50;9.63;;;5.30;99.90;;;;;;5055159;28;20073;-31
2022/12/05 09:23:50;;;;;;;20.15;10.38;;;5.40;99.90;;;;;;5055577;28;20048;-30
2022/12/05 09:26:18;;;;;;;18.17;9.05;;;5.40;99.90;;;;;;5054695;28;20434;-32
2022/12/05 09:28:44;;;;;;;24.83;10.60;;;5.40;99.90;;;;;;5054942;28;20483;-30
2022/12/05 09:31:13;;;;;;;17.95;10.15;;;5.40;99.90;;;;;;5053923;28;20124;-30
2022/12/05 09:33:39;;;;;;;19.83;9.23;;;5.90;99.90;;;;;;5054759;28;20546;-32
2022/12/05 09:36:07;;;;;;;21.33;9.82;;;5.40;99.90;;;;;;5054821;28;20592;-31
2022/12/05 09:38:33;;;;;;;22.40;10.13;;;5.40;99.90;;;;;;5055389;28;20052;-30
2022/12/05 09:44:52;;;;;;;20.33;9.43;;;5.50;99.90;;;;;;5032514;28;20084;-32
2022/12/05 09:48:02;;;;;;;23.95;10.40;;;5.50;99.90;;;;;;5032700;28;20049;-32
2022/12/05 09:50:30;;;;;;;21.73;9.50;;;5.50;99.90;;;;;;5019075;28;20064;-30
2022/12/05 09:53:01;;;;;;;21.40;8.57;;;5.50;99.90;;;;;;5054446;28;20070;-31
2022/12/05 09:56:07;;;;;;;20.08;9.40;;;5.50;99.90;;;;;;5054663;28;20041;-31
2022/12/05 09:58:46;;;;;;;16.17;9.38;;;5.50;99.90;;;;;;5052383;28;20093;-32
2022/12/05 10:01:11;;;;;;;25.20;9.35;;;5.60;99.90;;;;;;5054542;28;20096;-31
2022/12/05 10:04:06;;;;;;;16.42;8.73;;;5.60;99.90;;;;;;5054282;28;20523;-31
2022/12/05 10:06:42;;;;;;;19.63;9.63;;;5.60;99.90;;;;;;5055841;28;20379;-31
2022/12/05 10:09:26;;;;;;;19.38;9.27;;;5.60;99.90;;;;;;5054362;28;20049;-31
2022/12/05 10:11:52;;;;;;;;;;;5.50;99.90;;;;;;5054529;28;20138;-31
2022/12/05 10:14:36;;;;;;;19.80;9.50;;;5.50;99.90;;;;;;5053701;28;20453;-31
2022/12/05 10:17:18;;;;;;;23.35;9.95;;;5.50;99.90;;;;;;5054179;28;20145;-31
2022/12/05 10:19:48;;;;;;;23.80;9.70;;;5.50;99.90;;;;;;5054296;28;20142;-31
2022/12/05 10:22:37;;;;;;;18.58;8.82;;;5.50;99.90;;;;;;5054005;28;20041;-31
2022/12/05 10:25:05;;;;;;;22.05;9.23;;;5.50;99.90;;;;;;5052726;28;20049;-31
2022/12/05 10:27:42;;;;;;;22.35;10.23;;;5.50;99.90;;;;;;5053922;28;20049;-31
2022/12/05 10:30:11;;;;;;;23.50;10.18;;;5.50;99.90;;;;;;5054231;28;20052;-31
2022/12/05 10:32:48;;;;;;;27.08;10.52;;;5.50;99.90;;;;;;5053998;28;20041;-31
2022/12/05 10:35:26;;;;;;;22.85;9.88;;;5.50;99.90;;;;;;5053806;28;20044;-31
2022/12/05 10:37:57;;;;;;;24.52;10.75;;;5.40;99.90;;;;;;5069850;28;20395;-31
2022/12/05 10:40:29;;;;;;;21.75;10.02;;;5.40;99.90;;;;;;5053979;28;20566;-31
2022/12/05 10:42:55;;;;;;;19.20;10.02;;;5.40;99.90;;;;;;5054031;28;20051;-31
2022/12/05 10:45:23;;;;;;;23.58;10.82;;;5.40;99.90;;;;;;5052476;28;20465;-31
2022/12/05 10:47:54;;;;;;;19.13;9.35;;;5.40;99.90;;;;;;5052466;28;20088;-31
2022/12/05 10:50:23;;;;;;;24.63;10.35;;;5.40;99.90;;;;;;5054159;28;20060;-31
2022/12/05 10:52:52;;;;;;;26.02;10.52;;;5.40;99.90;;;;;;5053488;28;20040;-31
2022/12/05 10:55:18;;;;;;;20.17;8.38;;;5.40;99.90;;;;;;5052926;28;20045;-31
2022/12/05 10:58:15;;;;;;;18.15;9.52;;;5.50;99.90;;;;;;5053562;28;20045;-31
2022/12/05 11:00:46;;;;;;;20.13;8.60;;;5.40;99.90;;;;;;5053836;28;20045;-31
2022/12/05 11:03:30;;;;;;;15.90;9.07;;;5.30;99.90;;;;;;5054112;28;20107;-31
2022/12/05 11:05:59;;;;;;;17.67;8.70;;;5.30;99.90;;;;;;5054044;28;20063;-31
2022/12/05 11:08:33;;;;;;;18.65;8.88;;;5.40;99.90;;;;;;5053941;28;20044;-31
2022/12/05 11:11:16;;;;;;;16.17;8.25;;;5.40;99.90;;;;;;5053453;28;20131;-31
2022/12/05 11:13:57;;;;;;;24.45;8.65;;;5.40;99.90;;;;;;5053452;28;20140;-31
2022/12/05 11:16:29;;;;;;;21.55;8.25;;;5.40;99.90;;;;;;5053381;28;20059;-31
2022/12/05 11:18:55;;;;;;;21.52;8.27;;;5.40;99.90;;;;;;5052619;28;20044;-31
2022/12/05 11:21:21;;;;;;;22.55;7.75;;;5.30;99.90;;;;;;5053325;28;20458;-31
2022/12/05 11:23:48;;;;;;;17.75;8.00;;;5.30;99.90;;;;;;5053240;28;20041;-31
2022/12/05 11:26:33;;;;;;;14.15;7.70;;;5.50;99.90;;;;;;5053313;28;20045;-32
2022/12/05 11:28:59;;;;;;;16.55;7.80;;;5.40;99.90;;;;;;5053104;28;20053;-31
2022/12/05 11:31:27;;;;;;;17.45;7.82;;;5.40;99.90;;;;;;5053249;28;20052;-31
2022/12/05 11:34:03;;;;;;;17.45;7.43;;;5.40;99.90;;;;;;5051849;28;20120;-31
2022/12/05 11:36:54;;;;;;;16.23;7.53;;;5.40;99.90;;;;;;5053223;28;20045;-31
2022/12/05 11:39:20;;;;;;;14.52;6.70;;;5.40;99.90;;;;;;5052542;28;20590;-31
2022/12/05 11:41:54;;;;;;;15.65;7.05;;;5.40;99.90;;;;;;5053158;28;20048;-32
2022/12/05 11:44:48;;;;;;;14.65;6.57;;;5.40;99.90;;;;;;5053920;28;20123;-31
2022/12/05 11:47:20;;;;;;;;;;;5.30;99.90;;;;;;5053558;28;20094;-31
2022/12/05 11:49:57;;;;;;;18.80;6.60;;;5.30;99.90;;;;;;5053935;28;19925;-32
2022/12/05 11:52:46;;;;;;;16.42;6.15;;;5.30;99.90;;;;;;5052932;28;20052;-31
2022/12/05 11:55:17;;;;;;;19.55;6.78;;;5.30;99.90;;;;;;5052897;28;20129;-31
2022/12/05 11:57:58;;;;;;;19.13;6.35;;;5.30;99.90;;;;;;5053882;28;20141;-31
2022/12/05 12:00:55;;;;;;;16.70;6.55;;;5.30;99.90;;;;;;5052329;28;20052;-31
2022/12/05 12:03:41;;;;;;;13.65;5.70;;;5.20;99.90;;;;;;5053507;28;20124;-31
2022/12/05 12:06:24;;;;;;;12.10;5.70;;;5.20;99.90;;;;;;5056173;28;20048;-31
2022/12/05 12:09:09;;;;;;;19.55;6.07;;;5.20;99.90;;;;;;5056831;28;20126;-32
2022/12/05 12:11:48;;;;;;;10.43;5.00;;;5.20;99.90;;;;;;5057155;28;20098;-32
2022/12/05 12:14:16;;;;;;;10.93;5.22;;;5.20;99.90;;;;;;5070228;28;20139;-31
2022/12/05 12:17:02;;;;;;;17.65;5.53;;;5.20;99.90;;;;;;5056234;28;20102;-31
2022/12/05 12:19:36;;;;;;;10.82;5.13;;;5.20;99.90;;;;;;5056782;28;20048;-31
2022/12/05 12:22:42;;;;;;;11.20;4.80;;;5.20;99.90;;;;;;5056244;28;20102;-32
2022/12/05 12:25:19;;;;;;;16.80;6.22;;;5.20;99.90;;;;;;5056371;28;20487;-32
2022/12/05 12:27:47;;;;;;;11.38;5.20;;;5.10;99.90;;;;;;5056108;28;20506;-31
2022/12/05 12:30:32;;;;;;;9.25;5.03;;;5.20;99.90;;;;;;5056140;28;20049;-33
2022/12/05 12:33:01;;;;;;;18.92;6.75;;;5.10;99.90;;;;;;5056364;28;20087;-32
2022/12/05 12:35:37;;;;;;;13.55;5.85;;;5.10;99.90;;;;;;5056036;28;20124;-32
2022/12/05 12:38:16;;;;;;;15.32;5.30;;;5.10;99.90;;;;;;5056038;28;20079;-33
2022/12/05 12:40:57;;;;;;;11.00;5.13;;;5.50;99.90;;;;;;5057113;28;20055;-32
2022/12/05 12:43:37;;;;;;;12.88;5.20;;;5.20;99.90;;;;;;5056513;28;20077;-32
2022/12/05 12:46:06;;;;;;;12.13;5.38;;;5.10;99.90;;;;;;5055968;28;20131;-32
2022/12/05 12:49:02;;;;;;;10.15;4.82;;;5.10;99.90;;;;;;5056088;28;20048;-33
2022/12/05 12:51:30;;;;;;;7.85;4.20;;;5.10;99.90;;;;;;5055791;28;20051;-32
2022/12/05 12:54:11;;;;;;;14.10;4.03;;;5.40;99.90;;;;;;5055267;28;20053;-33
2022/12/05 12:56:49;;;;;;;10.32;4.85;;;5.10;99.90;;;;;;5056252;28;20045;-33
2022/12/05 12:59:36;;;;;;;12.68;4.75;;;5.20;99.90;;;;;;5055982;28;20079;-32
2022/12/05 13:02:25;;;;;;;7.72;4.05;;;5.20;99.90;;;;;;5056151;28;20052;-33
2022/12/05 13:05:00;;;;;;;9.07;3.80;;;5.10;99.90;;;;;;5055777;28;20052;-32
2022/12/05 13:07:44;;;;;;;8.43;4.22;;;5.20;99.90;;;;;;5055441;28;20059;-33
2022/12/05 13:10:27;;;;;;;7.57;4.25;;;5.20;99.90;;;;;;5054732;28;20128;-32
2022/12/05 13:12:56;;;;;;;11.52;4.47;;;5.30;99.90;;;;;;5055056;28;20102;-33
2022/12/05 13:15:43;;;;;;;13.27;4.90;;;5.20;99.90;;;;;;5055325;28;20136;-34